Sunday, June 17, 2018, 10:13 PM EDT
Back to Local

KAFN, Jaffrey Muni-silver Ranch

Location: Jaffrey, NH, United States Lat: 42.8
Local Time: 10:13 PM EDT ( 2:13 GMT) Lon: -72
Time Zone: US/Eastern Elev: 1040 ft

Show me the last for .
Show Decoded

2018-06-17 21:52 METAR KAFN 180152Z AUTO 00000KT 10SM CLR 21/14 A3007 RMK AO2 SLP180 T02060139 $
                 =
2018-06-17 20:52 METAR KAFN 180052Z AUTO 00000KT 10SM CLR 23/13 A3007 RMK AO2 SLP180 T02280133 $
                 =
2018-06-17 19:52 METAR KAFN 172352Z AUTO 00000KT 10SM CLR 24/15 A3007 RMK AO2 SLP183 T02440150
                 10306 20244 58004 $ =
2018-06-17 18:52 METAR KAFN 172252Z AUTO 18003KT 10SM CLR 28/08 A3008 RMK AO2 SLP186 T02830083 $
                 =
2018-06-17 17:52 METAR KAFN 172152Z AUTO 23004KT 10SM CLR 30/09 A3008 RMK AO2 SLP188 T03000094 $
                 =
2018-06-17 16:52 METAR KAFN 172052Z AUTO 25006KT 10SM CLR 30/11 A3009 RMK AO2 SLP188 T03000106
                 53001 $ =
2018-06-17 15:52 METAR KAFN 171952Z AUTO 34003KT 10SM CLR 30/11 A3008 RMK AO2 SLP187 T03000106 $
                 =
2018-06-17 14:52 METAR KAFN 171852Z AUTO 28005KT 10SM CLR 30/08 A3008 RMK AO2 SLP188 T03000078 $
                 =
2018-06-17 13:52 METAR KAFN 171752Z AUTO 26005KT 10SM CLR 29/08 A3008 RMK AO2 SLP187 T02940083
                 10300 20183 56013 $ =
2018-06-17 12:52 METAR KAFN 171652Z AUTO VRB03KT 10SM CLR 29/09 A3009 RMK AO2 SLP191 T02890094 $
                 =
2018-06-17 11:52 METAR KAFN 171552Z AUTO VRB04KT 10SM CLR 28/10 A3010 RMK AO2 SLP194 T02780100 $
                 =
2018-06-17 10:52 METAR KAFN 171452Z AUTO VRB03KT 10SM CLR 27/10 A3012 RMK AO2 SLP200 T02670100
                 50007 $ =
2018-06-17 09:52 METAR KAFN 171352Z AUTO VRB04KT 10SM CLR 26/11 A3013 RMK AO2 SLP205 T02610106 $
                 =
2018-06-17 08:52 METAR KAFN 171252Z AUTO 00000KT 10SM CLR 23/12 A3012 RMK AO2 SLP199 T02330117 $
                 =
2018-06-17 07:52 METAR KAFN 171152Z AUTO 00000KT 10SM CLR 18/13 A3010 RMK AO2 SLP193 T01830133
                 10183 20106 51012 $ =
2018-06-17 06:52 METAR KAFN 171052Z AUTO 00000KT 10SM CLR 13/12 A3009 RMK AO2 SLP190 T01280117 $
                 =
2018-06-17 05:52 METAR KAFN 170952Z AUTO 00000KT 10SM CLR 11/10 A3008 RMK AO2 SLP186 T01060100 $
                 =
2018-06-17 04:52 METAR KAFN 170852Z AUTO 19003KT 10SM CLR 11/10 A3006 RMK AO2 SLP182 T01060100
                 51005 $ =
2018-06-17 03:52 METAR KAFN 170752Z AUTO 00000KT 10SM CLR 11/11 A3006 RMK AO2 SLP181 T01110106 $
                 =
2018-06-17 02:52 METAR KAFN 170652Z AUTO 17003KT 10SM CLR 11/11 A3005 RMK AO2 SLP178 T01110106 $
                 =
2018-06-17 01:52 METAR KAFN 170552Z AUTO 00000KT 10SM CLR 12/11 A3005 RMK AO2 SLP175 T01220111
                 10233 20122 55001 $ =
2018-06-17 00:52 METAR KAFN 170452Z AUTO 00000KT 10SM CLR 13/12 A3005 RMK AO2 SLP175 T01330117
                 402780089 $ =
2018-06-16 23:52 METAR KAFN 170352Z AUTO 18003KT 10SM CLR 14/12 A3005 RMK AO2 SLP175 T01390117 $
                 =
2018-06-16 22:52 METAR KAFN 170252Z AUTO 18003KT 10SM CLR 14/12 A3005 RMK AO2 SLP177 T01440122 $
                 =

Support USWX by starting your Amazon purchase here.